sensor_id;sensor_type;location;lat;lon;timestamp;temperature;humidity
18444;DHT22;9350;53.176;8.194;2023-05-17T00:01:09;11.60;99.90
18444;DHT22;9350;53.176;8.194;2023-05-17T00:03:36;11.50;99.90
18444;DHT22;9350;53.176;8.194;2023-05-17T00:06:03;11.50;99.90
18444;DHT22;9350;53.176;8.194;2023-05-17T00:08:32;11.50;99.90
18444;DHT22;9350;53.176;8.194;2023-05-17T00:10:58;11.40;99.90
18444;DHT22;9350;53.176;8.194;2023-05-17T00:13:25;11.40;99.90
18444;DHT22;9350;53.176;8.194;2023-05-17T00:15:52;11.40;99.90
18444;DHT22;9350;53.176;8.194;2023-05-17T00:18:19;11.40;99.90
18444;DHT22;9350;53.176;8.194;2023-05-17T00:20:45;11.30;99.90
18444;DHT22;9350;53.176;8.194;2023-05-17T00:23:12;11.30;99.90
18444;DHT22;9350;53.176;8.194;2023-05-17T00:25:40;11.30;99.90
18444;DHT22;9350;53.176;8.194;2023-05-17T00:28:07;11.20;99.90
18444;DHT22;9350;53.176;8.194;2023-05-17T00:30:34;11.20;99.90
18444;DHT22;9350;53.176;8.194;2023-05-17T00:33:01;11.10;99.90
18444;DHT22;9350;53.176;8.194;2023-05-17T00:35:28;11.00;99.90
18444;DHT22;9350;53.176;8.194;2023-05-17T00:37:55;11.10;99.90
18444;DHT22;9350;53.176;8.194;2023-05-17T00:40:22;11.10;99.90
18444;DHT22;9350;53.176;8.194;2023-05-17T00:42:50;11.10;99.90
18444;DHT22;9350;53.176;8.194;2023-05-17T00:45:17;10.90;99.90
18444;DHT22;9350;53.176;8.194;2023-05-17T00:47:44;10.90;99.90
18444;DHT22;9350;53.176;8.194;2023-05-17T00:50:10;10.90;99.90
18444;DHT22;9350;53.176;8.194;2023-05-17T00:52:37;10.70;99.90
18444;DHT22;9350;53.176;8.194;2023-05-17T00:55:05;10.70;99.90
18444;DHT22;9350;53.176;8.194;2023-05-17T00:57:32;10.70;99.90
18444;DHT22;9350;53.176;8.194;2023-05-17T01:00:00;10.70;99.90
18444;DHT22;9350;53.176;8.194;2023-05-17T01:02:27;10.70;99.90
18444;DHT22;9350;53.176;8.194;2023-05-17T01:04:54;10.70;99.90
18444;DHT22;9350;53.176;8.194;2023-05-17T01:07:20;10.70;99.90
18444;DHT22;9350;53.176;8.194;2023-05-17T01:09:47;10.80;99.90
18444;DHT22;9350;53.176;8.194;2023-05-17T01:12:21;10.60;99.90
18444;DHT22;9350;53.176;8.194;2023-05-17T01:14:54;10.70;99.90
18444;DHT22;9350;53.176;8.194;2023-05-17T01:17:30;10.70;99.90
18444;DHT22;9350;53.176;8.194;2023-05-17T01:20:04;10.70;99.90
18444;DHT22;9350;53.176;8.194;2023-05-17T01:22:42;10.80;99.90
18444;DHT22;9350;53.176;8.194;2023-05-17T01:25:15;10.80;99.90
18444;DHT22;9350;53.176;8.194;2023-05-17T01:27:51;10.80;99.90
18444;DHT22;9350;53.176;8.194;2023-05-17T01:30:19;10.80;99.90
18444;DHT22;9350;53.176;8.194;2023-05-17T01:32:46;10.80;99.90
18444;DHT22;9350;53.176;8.194;2023-05-17T01:35:14;10.70;99.90
18444;DHT22;9350;53.176;8.194;2023-05-17T01:37:41;10.60;99.90
18444;DHT22;9350;53.176;8.194;2023-05-17T01:40:08;10.70;99.90
18444;DHT22;9350;53.176;8.194;2023-05-17T01:42:37;10.60;99.90
18444;DHT22;9350;53.176;8.194;2023-05-17T01:45:10;10.60;99.90
18444;DHT22;9350;53.176;8.194;2023-05-17T01:47:44;10.60;99.90
18444;DHT22;9350;53.176;8.194;2023-05-17T01:50:13;10.40;99.90
18444;DHT22;9350;53.176;8.194;2023-05-17T01:52:47;10.40;99.90
18444;DHT22;9350;53.176;8.194;2023-05-17T01:55:18;10.40;99.90
18444;DHT22;9350;53.176;8.194;2023-05-17T01:57:52;10.30;99.90
18444;DHT22;9350;53.176;8.194;2023-05-17T02:00:22;10.40;99.90
18444;DHT22;9350;53.176;8.194;2023-05-17T02:02:50;10.30;99.90
18444;DHT22;9350;53.176;8.194;2023-05-17T02:05:16;10.30;99.90
18444;DHT22;9350;53.176;8.194;2023-05-17T02:07:43;10.20;99.90
18444;DHT22;9350;53.176;8.194;2023-05-17T02:10:10;10.20;99.90
18444;DHT22;9350;53.176;8.194;2023-05-17T02:12:37;10.10;99.90
18444;DHT22;9350;53.176;8.194;2023-05-17T02:15:06;10.10;99.90
18444;DHT22;9350;53.176;8.194;2023-05-17T02:17:37;10.00;99.90
18444;DHT22;9350;53.176;8.194;2023-05-17T02:20:04;10.00;99.90
18444;DHT22;9350;53.176;8.194;2023-05-17T02:22:31;9.90;99.90
18444;DHT22;9350;53.176;8.194;2023-05-17T02:24:58;9.90;99.90
18444;DHT22;9350;53.176;8.194;2023-05-17T02:27:25;9.90;99.90
18444;DHT22;9350;53.176;8.194;2023-05-17T02:29:51;9.90;99.90
18444;DHT22;9350;53.176;8.194;2023-05-17T02:32:18;9.90;99.90
18444;DHT22;9350;53.176;8.194;2023-05-17T02:34:46;9.80;99.90
18444;DHT22;9350;53.176;8.194;2023-05-17T02:37:13;9.90;99.90
18444;DHT22;9350;53.176;8.194;2023-05-17T02:39:40;9.80;99.90
18444;DHT22;9350;53.176;8.194;2023-05-17T02:42:07;9.80;99.90
18444;DHT22;9350;53.176;8.194;2023-05-17T02:44:33;9.70;99.90
18444;DHT22;9350;53.176;8.194;2023-05-17T02:47:00;9.70;99.90
18444;DHT22;9350;53.176;8.194;2023-05-17T02:49:27;9.70;99.90
18444;DHT22;9350;53.176;8.194;2023-05-17T02:51:55;9.60;99.90
18444;DHT22;9350;53.176;8.194;2023-05-17T02:54:22;9.60;99.90
18444;DHT22;9350;53.176;8.194;2023-05-17T02:56:49;9.50;99.90
18444;DHT22;9350;53.176;8.194;2023-05-17T02:59:15;9.60;99.90
18444;DHT22;9350;53.176;8.194;2023-05-17T03:01:42;9.60;99.90
18444;DHT22;9350;53.176;8.194;2023-05-17T03:04:09;9.70;99.90
18444;DHT22;9350;53.176;8.194;2023-05-17T03:06:36;9.60;99.90
18444;DHT22;9350;53.176;8.194;2023-05-17T03:09:05;9.70;99.90
18444;DHT22;9350;53.176;8.194;2023-05-17T03:11:31;9.80;99.90
18444;DHT22;9350;53.176;8.194;2023-05-17T03:13:58;9.70;99.90
18444;DHT22;9350;53.176;8.194;2023-05-17T03:16:25;9.60;99.90
18444;DHT22;9350;53.176;8.194;2023-05-17T03:18:52;9.70;99.90
18444;DHT22;9350;53.176;8.194;2023-05-17T03:21:18;9.70;99.90
18444;DHT22;9350;53.176;8.194;2023-05-17T03:23:45;9.70;99.90
18444;DHT22;9350;53.176;8.194;2023-05-17T03:26:13;9.80;99.90
18444;DHT22;9350;53.176;8.194;2023-05-17T03:28:40;9.70;99.90
18444;DHT22;9350;53.176;8.194;2023-05-17T03:31:07;9.70;99.90
18444;DHT22;9350;53.176;8.194;2023-05-17T03:33:34;9.80;99.90
18444;DHT22;9350;53.176;8.194;2023-05-17T03:36:01;9.80;99.90
18444;DHT22;9350;53.176;8.194;2023-05-17T03:38:27;9.90;99.90
18444;DHT22;9350;53.176;8.194;2023-05-17T03:40:54;10.00;99.90
18444;DHT22;9350;53.176;8.194;2023-05-17T03:43:22;9.90;99.90
18444;DHT22;9350;53.176;8.194;2023-05-17T03:45:49;9.90;99.90
18444;DHT22;9350;53.176;8.194;2023-05-17T03:48:16;9.90;99.90
18444;DHT22;9350;53.176;8.194;2023-05-17T03:50:42;10.00;99.90
18444;DHT22;9350;53.176;8.194;2023-05-17T03:53:09;9.90;99.90
18444;DHT22;9350;53.176;8.194;2023-05-17T03:55:36;10.00;99.90
18444;DHT22;9350;53.176;8.194;2023-05-17T03:58:03;10.00;99.90
18444;DHT22;9350;53.176;8.194;2023-05-17T04:00:31;10.00;99.90
18444;DHT22;9350;53.176;8.194;2023-05-17T04:02:58;10.00;99.90
18444;DHT22;9350;53.176;8.194;2023-05-17T04:05:25;10.10;99.90
18444;DHT22;9350;53.176;8.194;2023-05-17T04:07:52;10.10;99.90
18444;DHT22;9350;53.176;8.194;2023-05-17T04:10:19;10.10;99.90
18444;DHT22;9350;53.176;8.194;2023-05-17T04:12:46;10.10;99.90
18444;DHT22;9350;53.176;8.194;2023-05-17T04:15:12;10.10;99.90
18444;DHT22;9350;53.176;8.194;2023-05-17T04:17:40;10.10;99.90
18444;DHT22;9350;53.176;8.194;2023-05-17T04:20:08;10.10;99.90
18444;DHT22;9350;53.176;8.194;2023-05-17T04:22:35;10.20;99.90
18444;DHT22;9350;53.176;8.194;2023-05-17T04:25:02;10.20;99.90
18444;DHT22;9350;53.176;8.194;2023-05-17T04:27:29;10.20;99.90
18444;DHT22;9350;53.176;8.194;2023-05-17T04:29:56;10.20;99.90
18444;DHT22;9350;53.176;8.194;2023-05-17T04:32:23;10.20;99.90
18444;DHT22;9350;53.176;8.194;2023-05-17T04:34:51;10.20;99.90
18444;DHT22;9350;53.176;8.194;2023-05-17T04:37:18;10.30;99.90
18444;DHT22;9350;53.176;8.194;2023-05-17T04:39:45;10.30;99.90
18444;DHT22;9350;53.176;8.194;2023-05-17T04:42:12;10.40;99.90
18444;DHT22;9350;53.176;8.194;2023-05-17T04:44:38;10.40;99.90
18444;DHT22;9350;53.176;8.194;2023-05-17T04:47:05;10.40;99.90
18444;DHT22;9350;53.176;8.194;2023-05-17T04:49:32;10.40;99.90
18444;DHT22;9350;53.176;8.194;2023-05-17T04:52:00;10.50;99.90
18444;DHT22;9350;53.176;8.194;2023-05-17T04:54:27;10.40;99.90
18444;DHT22;9350;53.176;8.194;2023-05-17T04:56:54;10.50;99.90
18444;DHT22;9350;53.176;8.194;2023-05-17T04:59:21;10.50;99.90
18444;DHT22;9350;53.176;8.194;2023-05-17T05:01:47;10.50;99.90
18444;DHT22;9350;53.176;8.194;2023-05-17T05:04:14;10.50;99.90
18444;DHT22;9350;53.176;8.194;2023-05-17T05:06:41;10.40;99.90
18444;DHT22;9350;53.176;8.194;2023-05-17T05:09:09;10.60;99.90
18444;DHT22;9350;53.176;8.194;2023-05-17T05:11:36;10.50;99.90
18444;DHT22;9350;53.176;8.194;2023-05-17T05:14:02;10.60;99.90
18444;DHT22;9350;53.176;8.194;2023-05-17T05:16:29;10.60;99.90
18444;DHT22;9350;53.176;8.194;2023-05-17T05:18:56;10.60;99.90
18444;DHT22;9350;53.176;8.194;2023-05-17T05:21:23;10.60;99.90
18444;DHT22;9350;53.176;8.194;2023-05-17T05:23:49;10.60;99.90
18444;DHT22;9350;53.176;8.194;2023-05-17T05:26:18;10.70;99.90
18444;DHT22;9350;53.176;8.194;2023-05-17T05:28:44;10.70;99.90
18444;DHT22;9350;53.176;8.194;2023-05-17T05:31:11;10.60;99.90
18444;DHT22;9350;53.176;8.194;2023-05-17T05:33:38;10.70;99.90
18444;DHT22;9350;53.176;8.194;2023-05-17T05:36:05;10.70;99.90
18444;DHT22;9350;53.176;8.194;2023-05-17T05:38:32;10.70;99.90
18444;DHT22;9350;53.176;8.194;2023-05-17T05:40:59;10.70;99.90
18444;DHT22;9350;53.176;8.194;2023-05-17T05:43:27;10.50;99.90
18444;DHT22;9350;53.176;8.194;2023-05-17T05:45:53;10.50;99.90
18444;DHT22;9350;53.176;8.194;2023-05-17T05:48:20;10.50;99.90
18444;DHT22;9350;53.176;8.194;2023-05-17T05:50:47;10.50;99.90
18444;DHT22;9350;53.176;8.194;2023-05-17T05:53:14;10.60;99.90
18444;DHT22;9350;53.176;8.194;2023-05-17T05:55:41;10.70;99.90
18444;DHT22;9350;53.176;8.194;2023-05-17T05:58:07;10.60;99.90
18444;DHT22;9350;53.176;8.194;2023-05-17T06:00:36;10.60;99.90
18444;DHT22;9350;53.176;8.194;2023-05-17T06:03:03;10.60;99.90
18444;DHT22;9350;53.176;8.194;2023-05-17T06:05:30;10.70;99.90
18444;DHT22;9350;53.176;8.194;2023-05-17T06:07:57;10.80;99.90
18444;DHT22;9350;53.176;8.194;2023-05-17T06:10:23;10.70;99.90
18444;DHT22;9350;53.176;8.194;2023-05-17T06:12:50;10.70;99.90
18444;DHT22;9350;53.176;8.194;2023-05-17T06:15:17;10.90;99.90
18444;DHT22;9350;53.176;8.194;2023-05-17T06:17:45;10.90;99.90
18444;DHT22;9350;53.176;8.194;2023-05-17T06:20:12;10.90;99.90
18444;DHT22;9350;53.176;8.194;2023-05-17T06:22:39;10.80;99.90
18444;DHT22;9350;53.176;8.194;2023-05-17T06:25:06;10.80;99.90
18444;DHT22;9350;53.176;8.194;2023-05-17T06:27:35;10.70;99.90
18444;DHT22;9350;53.176;8.194;2023-05-17T06:30:02;10.70;99.90
18444;DHT22;9350;53.176;8.194;2023-05-17T06:32:30;10.80;99.90
18444;DHT22;9350;53.176;8.194;2023-05-17T06:34:58;10.90;99.90
18444;DHT22;9350;53.176;8.194;2023-05-17T06:37:25;10.80;99.90
18444;DHT22;9350;53.176;8.194;2023-05-17T06:39:52;10.80;99.90
18444;DHT22;9350;53.176;8.194;2023-05-17T06:42:18;10.90;99.90
18444;DHT22;9350;53.176;8.194;2023-05-17T06:44:45;10.80;99.90
18444;DHT22;9350;53.176;8.194;2023-05-17T06:47:12;10.90;99.90
18444;DHT22;9350;53.176;8.194;2023-05-17T06:49:39;11.00;99.90
18444;DHT22;9350;53.176;8.194;2023-05-17T06:52:07;10.80;99.90
18444;DHT22;9350;53.176;8.194;2023-05-17T06:54:33;10.80;99.90
18444;DHT22;9350;53.176;8.194;2023-05-17T06:57:00;10.80;99.90
18444;DHT22;9350;53.176;8.194;2023-05-17T06:59:27;10.80;99.90
18444;DHT22;9350;53.176;8.194;2023-05-17T07:01:54;10.80;99.90
18444;DHT22;9350;53.176;8.194;2023-05-17T07:04:21;10.90;99.90
18444;DHT22;9350;53.176;8.194;2023-05-17T07:06:48;10.90;99.90
18444;DHT22;9350;53.176;8.194;2023-05-17T07:09:17;10.80;99.90
18444;DHT22;9350;53.176;8.194;2023-05-17T07:11:44;10.80;99.90
18444;DHT22;9350;53.176;8.194;2023-05-17T07:14:10;10.80;99.90
18444;DHT22;9350;53.176;8.194;2023-05-17T07:16:37;10.80;99.90
18444;DHT22;9350;53.176;8.194;2023-05-17T07:19:04;10.90;99.90
18444;DHT22;9350;53.176;8.194;2023-05-17T07:21:31;11.00;99.90
18444;DHT22;9350;53.176;8.194;2023-05-17T07:23:58;11.00;99.90
18444;DHT22;9350;53.176;8.194;2023-05-17T07:26:27;11.20;99.90
18444;DHT22;9350;53.176;8.194;2023-05-17T07:28:53;11.10;99.90
18444;DHT22;9350;53.176;8.194;2023-05-17T07:31:20;11.10;99.90
18444;DHT22;9350;53.176;8.194;2023-05-17T07:33:47;11.20;99.90
18444;DHT22;9350;53.176;8.194;2023-05-17T07:36:14;11.30;99.90
18444;DHT22;9350;53.176;8.194;2023-05-17T07:38:41;11.30;99.90
18444;DHT22;9350;53.176;8.194;2023-05-17T07:41:07;11.30;99.90
18444;DHT22;9350;53.176;8.194;2023-05-17T07:43:36;11.20;99.90
18444;DHT22;9350;53.176;8.194;2023-05-17T07:46:04;11.30;99.90
18444;DHT22;9350;53.176;8.194;2023-05-17T07:48:30;11.20;99.90
18444;DHT22;9350;53.176;8.194;2023-05-17T07:50:57;11.30;99.90
18444;DHT22;9350;53.176;8.194;2023-05-17T07:53:24;11.20;99.90
18444;DHT22;9350;53.176;8.194;2023-05-17T07:55:50;11.20;99.90
18444;DHT22;9350;53.176;8.194;2023-05-17T07:58:18;11.30;99.90
18444;DHT22;9350;53.176;8.194;2023-05-17T08:00:46;11.40;99.90
18444;DHT22;9350;53.176;8.194;2023-05-17T08:03:13;11.30;99.90
18444;DHT22;9350;53.176;8.194;2023-05-17T08:05:40;11.40;99.90
18444;DHT22;9350;53.176;8.194;2023-05-17T08:08:07;11.40;99.90
18444;DHT22;9350;53.176;8.194;2023-05-17T08:10:34;11.60;99.90
18444;DHT22;9350;53.176;8.194;2023-05-17T08:13:02;11.60;99.90
18444;DHT22;9350;53.176;8.194;2023-05-17T08:15:29;11.60;99.90
18444;DHT22;9350;53.176;8.194;2023-05-17T08:17:57;11.90;99.90
18444;DHT22;9350;53.176;8.194;2023-05-17T08:20:24;11.70;99.90
18444;DHT22;9350;53.176;8.194;2023-05-17T08:22:51;11.70;99.90
18444;DHT22;9350;53.176;8.194;2023-05-17T08:25:18;11.70;99.90
18444;DHT22;9350;53.176;8.194;2023-05-17T08:27:45;11.80;99.90
18444;DHT22;9350;53.176;8.194;2023-05-17T08:30:12;11.80;99.90
18444;DHT22;9350;53.176;8.194;2023-05-17T08:32:39;11.90;99.90
18444;DHT22;9350;53.176;8.194;2023-05-17T08:35:08;11.90;99.90
18444;DHT22;9350;53.176;8.194;2023-05-17T08:37:35;11.90;99.90
18444;DHT22;9350;53.176;8.194;2023-05-17T08:40:02;12.00;99.90
18444;DHT22;9350;53.176;8.194;2023-05-17T08:42:29;11.80;99.90
18444;DHT22;9350;53.176;8.194;2023-05-17T08:44:56;11.90;99.90
18444;DHT22;9350;53.176;8.194;2023-05-17T08:47:25;11.90;99.90
18444;DHT22;9350;53.176;8.194;2023-05-17T08:49:54;12.00;99.90
18444;DHT22;9350;53.176;8.194;2023-05-17T08:52:27;11.90;99.90
18444;DHT22;9350;53.176;8.194;2023-05-17T08:54:55;11.70;99.90
18444;DHT22;9350;53.176;8.194;2023-05-17T08:57:23;11.70;99.90
18444;DHT22;9350;53.176;8.194;2023-05-17T08:59:53;11.70;99.90
18444;DHT22;9350;53.176;8.194;2023-05-17T09:02:22;11.70;99.90
18444;DHT22;9350;53.176;8.194;2023-05-17T09:04:49;11.70;99.90
18444;DHT22;9350;53.176;8.194;2023-05-17T09:07:20;11.70;99.90
18444;DHT22;9350;53.176;8.194;2023-05-17T09:09:49;11.60;99.90
18444;DHT22;9350;53.176;8.194;2023-05-17T09:12:17;11.70;99.90
18444;DHT22;9350;53.176;8.194;2023-05-17T09:14:44;11.80;99.90
18444;DHT22;9350;53.176;8.194;2023-05-17T09:17:13;12.00;99.90
18444;DHT22;9350;53.176;8.194;2023-05-17T09:19:42;12.00;99.90
18444;DHT22;9350;53.176;8.194;2023-05-17T09:22:12;12.00;99.90
18444;DHT22;9350;53.176;8.194;2023-05-17T09:24:39;12.00;99.90
18444;DHT22;9350;53.176;8.194;2023-05-17T09:27:13;11.90;99.90
18444;DHT22;9350;53.176;8.194;2023-05-17T09:29:40;11.90;99.90
18444;DHT22;9350;53.176;8.194;2023-05-17T09:32:14;11.90;99.90
18444;DHT22;9350;53.176;8.194;2023-05-17T09:34:41;11.90;99.90
18444;DHT22;9350;53.176;8.194;2023-05-17T09:37:14;11.90;99.90
18444;DHT22;9350;53.176;8.194;2023-05-17T09:39:42;12.00;99.90
18444;DHT22;9350;53.176;8.194;2023-05-17T09:42:12;12.10;99.90
18444;DHT22;9350;53.176;8.194;2023-05-17T09:44:46;12.10;99.90
18444;DHT22;9350;53.176;8.194;2023-05-17T09:47:21;12.10;99.90
18444;DHT22;9350;53.176;8.194;2023-05-17T09:49:49;12.00;99.90
18444;DHT22;9350;53.176;8.194;2023-05-17T09:52:17;12.00;99.90
18444;DHT22;9350;53.176;8.194;2023-05-17T09:54:51;12.10;99.90
18444;DHT22;9350;53.176;8.194;2023-05-17T09:57:20;12.20;99.90
18444;DHT22;9350;53.176;8.194;2023-05-17T09:59:47;12.10;99.90
18444;DHT22;9350;53.176;8.194;2023-05-17T10:02:19;12.20;99.90
18444;DHT22;9350;53.176;8.194;2023-05-17T10:04:47;12.00;99.90
18444;DHT22;9350;53.176;8.194;2023-05-17T10:07:17;12.10;99.90
18444;DHT22;9350;53.176;8.194;2023-05-17T10:09:45;11.90;99.90
18444;DHT22;9350;53.176;8.194;2023-05-17T10:12:16;11.90;99.90
18444;DHT22;9350;53.176;8.194;2023-05-17T10:14:44;11.90;99.90
18444;DHT22;9350;53.176;8.194;2023-05-17T10:17:12;12.00;99.90
18444;DHT22;9350;53.176;8.194;2023-05-17T10:19:40;12.00;99.90
18444;DHT22;9350;53.176;8.194;2023-05-17T10:22:07;12.20;99.90
18444;DHT22;9350;53.176;8.194;2023-05-17T10:24:34;12.10;99.90
18444;DHT22;9350;53.176;8.194;2023-05-17T10:27:03;12.30;99.90
18444;DHT22;9350;53.176;8.194;2023-05-17T10:29:32;12.40;99.90
18444;DHT22;9350;53.176;8.194;2023-05-17T10:32:02;12.40;99.90
18444;DHT22;9350;53.176;8.194;2023-05-17T10:34:29;12.40;99.90
18444;DHT22;9350;53.176;8.194;2023-05-17T10:36:57;12.50;99.90
18444;DHT22;9350;53.176;8.194;2023-05-17T10:39:25;12.20;99.90
18444;DHT22;9350;53.176;8.194;2023-05-17T10:41:53;12.30;99.90
18444;DHT22;9350;53.176;8.194;2023-05-17T10:44:21;12.20;99.90
18444;DHT22;9350;53.176;8.194;2023-05-17T10:46:53;12.30;99.90
18444;DHT22;9350;53.176;8.194;2023-05-17T10:49:23;12.40;99.90
18444;DHT22;9350;53.176;8.194;2023-05-17T10:51:51;12.40;99.90
18444;DHT22;9350;53.176;8.194;2023-05-17T10:54:18;12.40;99.90
18444;DHT22;9350;53.176;8.194;2023-05-17T10:56:50;12.50;99.90
18444;DHT22;9350;53.176;8.194;2023-05-17T10:59:18;12.60;99.90
18444;DHT22;9350;53.176;8.194;2023-05-17T11:01:51;12.60;99.90
18444;DHT22;9350;53.176;8.194;2023-05-17T11:04:21;12.60;99.90
18444;DHT22;9350;53.176;8.194;2023-05-17T11:06:51;12.60;99.90
18444;DHT22;9350;53.176;8.194;2023-05-17T11:09:21;12.70;99.90
18444;DHT22;9350;53.176;8.194;2023-05-17T11:12:05;12.70;99.90
18444;DHT22;9350;53.176;8.194;2023-05-17T11:14:57;12.60;99.90
18444;DHT22;9350;53.176;8.194;2023-05-17T11:17:25;12.80;99.90
18444;DHT22;9350;53.176;8.194;2023-05-17T11:20:00;12.80;99.90
18444;DHT22;9350;53.176;8.194;2023-05-17T11:22:33;12.90;99.90
18444;DHT22;9350;53.176;8.194;2023-05-17T11:25:05;12.70;99.90
18444;DHT22;9350;53.176;8.194;2023-05-17T11:27:36;12.70;99.90
18444;DHT22;9350;53.176;8.194;2023-05-17T11:30:19;12.80;99.90
18444;DHT22;9350;53.176;8.194;2023-05-17T11:32:49;12.90;99.90
18444;DHT22;9350;53.176;8.194;2023-05-17T11:35:22;13.00;99.90
18444;DHT22;9350;53.176;8.194;2023-05-17T11:37:51;13.10;99.90
18444;DHT22;9350;53.176;8.194;2023-05-17T11:40:24;13.00;99.90
18444;DHT22;9350;53.176;8.194;2023-05-17T11:43:10;13.00;99.90
18444;DHT22;9350;53.176;8.194;2023-05-17T11:45:45;13.00;99.90
18444;DHT22;9350;53.176;8.194;2023-05-17T11:48:12;13.00;99.90
18444;DHT22;9350;53.176;8.194;2023-05-17T11:50:41;13.00;99.90
18444;DHT22;9350;53.176;8.194;2023-05-17T11:53:09;13.10;99.90
18444;DHT22;9350;53.176;8.194;2023-05-17T11:55:37;13.10;99.90
18444;DHT22;9350;53.176;8.194;2023-05-17T11:58:06;13.10;99.90
18444;DHT22;9350;53.176;8.194;2023-05-17T12:00:34;13.10;99.90
18444;DHT22;9350;53.176;8.194;2023-05-17T12:03:18;13.20;99.90
18444;DHT22;9350;53.176;8.194;2023-05-17T12:05:48;13.20;99.90
18444;DHT22;9350;53.176;8.194;2023-05-17T12:08:16;13.30;99.90
18444;DHT22;9350;53.176;8.194;2023-05-17T12:10:45;13.10;99.90
18444;DHT22;9350;53.176;8.194;2023-05-17T12:13:12;13.00;99.90
18444;DHT22;9350;53.176;8.194;2023-05-17T12:15:39;12.90;99.90
18444;DHT22;9350;53.176;8.194;2023-05-17T12:18:06;13.00;99.90
18444;DHT22;9350;53.176;8.194;2023-05-17T12:20:33;12.90;99.90
18444;DHT22;9350;53.176;8.194;2023-05-17T12:23:04;12.90;99.90
18444;DHT22;9350;53.176;8.194;2023-05-17T12:25:30;12.80;99.90
18444;DHT22;9350;53.176;8.194;2023-05-17T12:28:13;12.80;99.90
18444;DHT22;9350;53.176;8.194;2023-05-17T12:30:41;12.90;99.90
18444;DHT22;9350;53.176;8.194;2023-05-17T12:33:08;12.90;99.90
18444;DHT22;9350;53.176;8.194;2023-05-17T12:35:35;12.90;99.90
18444;DHT22;9350;53.176;8.194;2023-05-17T12:38:03;12.80;99.90
18444;DHT22;9350;53.176;8.194;2023-05-17T12:40:30;13.00;99.90
18444;DHT22;9350;53.176;8.194;2023-05-17T12:43:01;13.00;99.90
18444;DHT22;9350;53.176;8.194;2023-05-17T12:45:28;12.90;99.90
18444;DHT22;9350;53.176;8.194;2023-05-17T12:47:55;12.90;99.90
18444;DHT22;9350;53.176;8.194;2023-05-17T12:50:24;12.90;99.90
18444;DHT22;9350;53.176;8.194;2023-05-17T12:52:51;12.90;99.90
18444;DHT22;9350;53.176;8.194;2023-05-17T12:55:19;13.00;99.90
18444;DHT22;9350;53.176;8.194;2023-05-17T12:57:49;13.10;99.90
18444;DHT22;9350;53.176;8.194;2023-05-17T13:00:18;13.20;99.90
18444;DHT22;9350;53.176;8.194;2023-05-17T13:02:45;13.20;99.90
18444;DHT22;9350;53.176;8.194;2023-05-17T13:05:13;13.10;99.90
18444;DHT22;9350;53.176;8.194;2023-05-17T13:07:40;13.20;99.90
18444;DHT22;9350;53.176;8.194;2023-05-17T13:10:20;13.20;99.90
18444;DHT22;9350;53.176;8.194;2023-05-17T13:12:55;13.10;99.90
18444;DHT22;9350;53.176;8.194;2023-05-17T13:15:27;13.30;99.90
18444;DHT22;9350;53.176;8.194;2023-05-17T13:17:54;13.20;99.90
18444;DHT22;9350;53.176;8.194;2023-05-17T13:20:20;13.30;99.90
18444;DHT22;9350;53.176;8.194;2023-05-17T13:22:48;13.30;99.90
18444;DHT22;9350;53.176;8.194;2023-05-17T13:25:15;13.40;99.90
18444;DHT22;9350;53.176;8.194;2023-05-17T13:27:44;13.30;99.90
18444;DHT22;9350;53.176;8.194;2023-05-17T13:30:14;13.30;99.90
18444;DHT22;9350;53.176;8.194;2023-05-17T13:32:41;13.40;99.90
18444;DHT22;9350;53.176;8.194;2023-05-17T13:35:08;13.50;99.90
18444;DHT22;9350;53.176;8.194;2023-05-17T13:37:35;13.60;99.90
18444;DHT22;9350;53.176;8.194;2023-05-17T13:40:02;13.60;99.90
18444;DHT22;9350;53.176;8.194;2023-05-17T13:42:29;13.50;99.90
18444;DHT22;9350;53.176;8.194;2023-05-17T13:44:57;13.60;99.90
18444;DHT22;9350;53.176;8.194;2023-05-17T13:47:25;13.70;99.90
18444;DHT22;9350;53.176;8.194;2023-05-17T13:49:54;13.50;99.90
18444;DHT22;9350;53.176;8.194;2023-05-17T13:52:20;13.60;99.90
18444;DHT22;9350;53.176;8.194;2023-05-17T13:54:47;13.60;99.90
18444;DHT22;9350;53.176;8.194;2023-05-17T13:57:14;13.60;99.90
18444;DHT22;9350;53.176;8.194;2023-05-17T13:59:41;13.70;99.90
18444;DHT22;9350;53.176;8.194;2023-05-17T14:02:10;13.80;99.90
18444;DHT22;9350;53.176;8.194;2023-05-17T14:04:37;13.90;99.90
18444;DHT22;9350;53.176;8.194;2023-05-17T14:07:04;13.80;99.90
18444;DHT22;9350;53.176;8.194;2023-05-17T14:09:31;13.80;99.90
18444;DHT22;9350;53.176;8.194;2023-05-17T14:11:59;13.80;99.90
18444;DHT22;9350;53.176;8.194;2023-05-17T14:14:26;13.70;99.90
18444;DHT22;9350;53.176;8.194;2023-05-17T14:16:53;13.70;99.90
18444;DHT22;9350;53.176;8.194;2023-05-17T14:19:22;13.60;99.90
18444;DHT22;9350;53.176;8.194;2023-05-17T14:21:48;13.40;99.90
18444;DHT22;9350;53.176;8.194;2023-05-17T14:24:15;13.40;99.90
18444;DHT22;9350;53.176;8.194;2023-05-17T14:26:42;13.40;99.90
18444;DHT22;9350;53.176;8.194;2023-05-17T14:29:09;13.30;99.90
18444;DHT22;9350;53.176;8.194;2023-05-17T14:31:35;13.30;99.90
18444;DHT22;9350;53.176;8.194;2023-05-17T14:34:02;13.40;99.90
18444;DHT22;9350;53.176;8.194;2023-05-17T14:36:30;13.20;99.90
18444;DHT22;9350;53.176;8.194;2023-05-17T14:39:00;13.10;99.90
18444;DHT22;9350;53.176;8.194;2023-05-17T14:41:27;13.00;99.90
18444;DHT22;9350;53.176;8.194;2023-05-17T14:43:53;12.90;99.90
18444;DHT22;9350;53.176;8.194;2023-05-17T14:46:20;12.90;99.90
18444;DHT22;9350;53.176;8.194;2023-05-17T14:48:47;12.90;99.90
18444;DHT22;9350;53.176;8.194;2023-05-17T14:51:16;12.90;99.90
18444;DHT22;9350;53.176;8.194;2023-05-17T14:53:44;12.90;99.90
18444;DHT22;9350;53.176;8.194;2023-05-17T14:56:11;13.10;99.90
18444;DHT22;9350;53.176;8.194;2023-05-17T14:58:39;13.10;99.90
18444;DHT22;9350;53.176;8.194;2023-05-17T15:01:06;13.20;99.90
18444;DHT22;9350;53.176;8.194;2023-05-17T15:03:33;13.30;99.90
18444;DHT22;9350;53.176;8.194;2023-05-17T15:06:00;13.40;99.90
18444;DHT22;9350;53.176;8.194;2023-05-17T15:08:27;13.20;99.90
18444;DHT22;9350;53.176;8.194;2023-05-17T15:10:55;13.10;99.90
18444;DHT22;9350;53.176;8.194;2023-05-17T15:13:22;13.20;99.90
18444;DHT22;9350;53.176;8.194;2023-05-17T15:15:49;13.20;99.90
18444;DHT22;9350;53.176;8.194;2023-05-17T15:18:16;13.10;99.90
18444;DHT22;9350;53.176;8.194;2023-05-17T15:20:43;13.10;99.90
18444;DHT22;9350;53.176;8.194;2023-05-17T15:23:10;13.10;99.90
18444;DHT22;9350;53.176;8.194;2023-05-17T15:25:37;13.20;99.90
18444;DHT22;9350;53.176;8.194;2023-05-17T15:28:05;13.30;99.90
18444;DHT22;9350;53.176;8.194;2023-05-17T15:30:32;13.20;99.90
18444;DHT22;9350;53.176;8.194;2023-05-17T15:32:59;13.20;99.90
18444;DHT22;9350;53.176;8.194;2023-05-17T15:35:26;13.20;99.90
18444;DHT22;9350;53.176;8.194;2023-05-17T15:37:53;13.20;99.90
18444;DHT22;9350;53.176;8.194;2023-05-17T15:40:21;13.10;99.90
18444;DHT22;9350;53.176;8.194;2023-05-17T15:42:49;13.10;99.90
18444;DHT22;9350;53.176;8.194;2023-05-17T15:45:18;13.20;99.90
18444;DHT22;9350;53.176;8.194;2023-05-17T15:47:46;13.30;99.90
18444;DHT22;9350;53.176;8.194;2023-05-17T15:50:13;13.50;99.90
18444;DHT22;9350;53.176;8.194;2023-05-17T15:52:40;13.30;99.90